TimeCST,TemperatureF,Dew PointF,Humidity,Sea Level PressureIn,VisibilityMPH,Wind Direction,Wind SpeedMPH,Gust SpeedMPH,PrecipitationIn,Events,Conditions,WindDirDegrees,DateUTC
12:14 AM,21.2,19.4,93,30.17,10.0,NNW,3.5,-,N/A,,Overcast,340,2013-12-01 06:14:00
12:33 AM,21.2,19.4,93,30.17,10.0,Calm,Calm,-,N/A,,Overcast,0,2013-12-01 06:33:00
12:53 AM,21.2,19.4,93,30.17,10.0,Calm,Calm,-,N/A,,Overcast,0,2013-12-01 06:53:00
1:14 AM,21.2,19.4,93,30.16,10.0,Calm,Calm,-,N/A,,Overcast,0,2013-12-01 07:14:00
1:33 AM,21.2,19.4,93,30.16,10.0,Calm,Calm,-,N/A,,Overcast,0,2013-12-01 07:33:00
1:53 AM,21.2,19.4,93,30.16,10.0,West,3.5,-,N/A,,Overcast,270,2013-12-01 07:53:00
2:14 AM,21.2,19.4,93,30.17,10.0,Calm,Calm,-,N/A,,Overcast,0,2013-12-01 08:14:00
2:33 AM,21.2,19.4,93,30.17,10.0,NW,4.6,-,N/A,,Overcast,320,2013-12-01 08:33:00
2:53 AM,21.2,19.4,93,30.17,10.0,Calm,Calm,-,N/A,,Overcast,0,2013-12-01 08:53:00
3:13 AM,21.2,19.4,93,30.16,7.0,West,3.5,-,N/A,,Overcast,270,2013-12-01 09:13:00
3:33 AM,21.2,19.4,93,30.17,7.0,Calm,Calm,-,N/A,,Overcast,0,2013-12-01 09:33:00
3:53 AM,21.2,19.4,93,30.16,7.0,WSW,3.5,-,N/A,,Overcast,250,2013-12-01 09:53:00
4:14 AM,19.4,19.4,100,30.16,7.0,West,5.8,-,N/A,,Overcast,280,2013-12-01 10:14:00
4:33 AM,19.4,19.4,100,30.16,7.0,Calm,Calm,-,N/A,,Overcast,0,2013-12-01 10:33:00
4:53 AM,19.4,19.4,100,30.16,5.0,NW,3.5,-,N/A,,Overcast,310,2013-12-01 10:53:00
5:13 AM,19.4,19.4,100,30.16,5.0,Calm,Calm,-,N/A,,Overcast,0,2013-12-01 11:13:00
5:34 AM,19.4,19.4,100,30.16,5.0,NW,4.6,-,N/A,,Overcast,310,2013-12-01 11:34:00
5:53 AM,19.4,19.4,100,30.16,4.0,West,5.8,-,N/A,,Overcast,280,2013-12-01 11:53:00
6:13 AM,19.4,19.4,100,30.16,3.0,West,4.6,-,N/A,,Overcast,280,2013-12-01 12:13:00
6:33 AM,19.4,17.6,93,30.15,2.0,North,4.6,-,N/A,,Overcast,350,2013-12-01 12:33:00
6:54 AM,19.4,17.6,93,30.15,3.0,NNW,5.8,-,N/A,,Overcast,330,2013-12-01 12:54:00
7:13 AM,19.4,17.6,93,30.16,2.5,Calm,Calm,-,N/A,,Overcast,0,2013-12-01 13:13:00
7:33 AM,19.4,17.6,93,30.15,1.5,Calm,Calm,-,N/A,,Overcast,0,2013-12-01 13:33:00
7:54 AM,19.4,17.6,93,30.15,1.2,Calm,Calm,-,N/A,,Overcast,0,2013-12-01 13:54:00
8:13 AM,19.4,17.6,93,30.15,1.0,Calm,Calm,-,N/A,,Overcast,0,2013-12-01 14:13:00
8:33 AM,19.4,17.6,93,30.15,0.5,Calm,Calm,-,N/A,Fog,Light Freezing Fog,0,2013-12-01 14:33:00
8:53 AM,19.4,17.6,93,30.16,0.8,Calm,Calm,-,N/A,,Overcast,0,2013-12-01 14:53:00
9:13 AM,19.4,17.6,93,30.15,1.0,Calm,Calm,-,N/A,,Overcast,0,2013-12-01 15:13:00
9:33 AM,19.4,17.6,93,30.15,1.5,Calm,Calm,-,N/A,,Overcast,0,2013-12-01 15:33:00
9:53 AM,19.4,17.6,93,30.15,1.8,Calm,Calm,-,N/A,,Overcast,0,2013-12-01 15:53:00
10:13 AM,19.4,17.6,93,30.14,1.5,Calm,Calm,-,N/A,,Overcast,0,2013-12-01 16:13:00
10:33 AM,19.4,17.6,93,30.14,2.0,Calm,Calm,-,N/A,,Overcast,0,2013-12-01 16:33:00
10:53 AM,19.4,19.4,100,30.14,2.5,Calm,Calm,-,N/A,,Overcast,0,2013-12-01 16:53:00
11:13 AM,19.4,19.4,100,30.13,3.0,Calm,Calm,-,N/A,,Overcast,0,2013-12-01 17:13:00
11:33 AM,19.4,19.4,100,30.13,3.0,Calm,Calm,-,N/A,,Overcast,0,2013-12-01 17:33:00
11:53 AM,19.4,19.4,100,30.12,4.0,Calm,Calm,-,N/A,,Overcast,0,2013-12-01 17:53:00
12:13 PM,19.4,19.4,100,30.11,4.0,Calm,Calm,-,N/A,,Overcast,0,2013-12-01 18:13:00
12:33 PM,19.4,19.4,100,30.10,4.0,Calm,Calm,-,N/A,,Overcast,0,2013-12-01 18:33:00
12:54 PM,19.4,19.4,100,30.08,5.0,Calm,Calm,-,N/A,,Overcast,0,2013-12-01 18:54:00
1:13 PM,19.4,19.4,100,30.07,5.0,Calm,Calm,-,N/A,,Overcast,0,2013-12-01 19:13:00
1:33 PM,19.4,19.4,100,30.07,5.0,Calm,Calm,-,N/A,,Overcast,0,2013-12-01 19:33:00
1:54 PM,19.4,19.4,100,30.06,5.0,Calm,Calm,-,N/A,,Overcast,0,2013-12-01 19:54:00
2:13 PM,19.4,19.4,100,30.05,5.0,Calm,Calm,-,N/A,,Overcast,0,2013-12-01 20:13:00
2:33 PM,19.4,19.4,100,30.04,5.0,Calm,Calm,-,N/A,,Overcast,0,2013-12-01 20:33:00
2:54 PM,19.4,19.4,100,30.03,7.0,Calm,Calm,-,N/A,,Overcast,0,2013-12-01 20:54:00
3:13 PM,19.4,19.4,100,30.02,5.0,Calm,Calm,-,N/A,,Overcast,0,2013-12-01 21:13:00
3:33 PM,19.4,19.4,100,30.02,4.0,Calm,Calm,-,N/A,,Overcast,0,2013-12-01 21:33:00
3:54 PM,19.4,19.4,100,30.01,5.0,Calm,Calm,-,N/A,,Overcast,0,2013-12-01 21:54:00
4:13 PM,19.4,19.4,100,30.01,5.0,Calm,Calm,-,N/A,,Overcast,0,2013-12-01 22:13:00
4:33 PM,19.4,19.4,100,30.01,7.0,Calm,Calm,-,N/A,,Overcast,0,2013-12-01 22:33:00
4:54 PM,19.4,19.4,100,30.00,7.0,ESE,3.5,-,N/A,,Overcast,110,2013-12-01 22:54:00
5:13 PM,19.4,19.4,100,30.00,7.0,Calm,Calm,-,N/A,,Overcast,0,2013-12-01 23:13:00
5:33 PM,19.4,19.4,100,29.99,7.0,East,3.5,-,N/A,,Overcast,100,2013-12-01 23:33:00
5:53 PM,19.4,19.4,100,29.99,7.0,Calm,Calm,-,N/A,,Overcast,0,2013-12-01 23:53:00
6:13 PM,19.4,19.4,100,29.98,5.0,Calm,Calm,-,N/A,,Overcast,0,2013-12-02 00:13:00
6:33 PM,19.4,19.4,100,29.97,5.0,Calm,Calm,-,N/A,,Overcast,0,2013-12-02 00:33:00
6:53 PM,19.4,19.4,100,29.96,5.0,Calm,Calm,-,N/A,,Overcast,0,2013-12-02 00:53:00
7:13 PM,21.2,19.4,93,29.95,5.0,Calm,Calm,-,N/A,,Overcast,0,2013-12-02 01:13:00
7:34 PM,21.2,21.2,100,29.95,7.0,Calm,Calm,-,N/A,,Overcast,0,2013-12-02 01:34:00
7:53 PM,21.2,21.2,100,29.94,7.0,Calm,Calm,-,N/A,,Overcast,0,2013-12-02 01:53:00
8:13 PM,21.2,21.2,100,29.93,7.0,Calm,Calm,-,N/A,,Overcast,0,2013-12-02 02:13:00
8:34 PM,21.2,21.2,100,29.93,7.0,Calm,Calm,-,N/A,,Overcast,0,2013-12-02 02:34:00
8:53 PM,21.2,21.2,100,29.92,7.0,Calm,Calm,-,N/A,,Overcast,0,2013-12-02 02:53:00
9:13 PM,21.2,21.2,100,29.92,7.0,East,3.5,-,N/A,,Overcast,90,2013-12-02 03:13:00
9:33 PM,21.2,21.2,100,29.91,5.0,Calm,Calm,-,N/A,,Overcast,0,2013-12-02 03:33:00
9:53 PM,21.2,21.2,100,29.91,7.0,Calm,Calm,-,N/A,,Overcast,0,2013-12-02 03:53:00
10:13 PM,21.2,21.2,100,29.89,7.0,East,4.6,-,N/A,,Overcast,80,2013-12-02 04:13:00
10:33 PM,21.2,21.2,100,29.89,5.0,Calm,Calm,-,N/A,,Overcast,0,2013-12-02 04:33:00
10:53 PM,21.2,21.2,100,29.89,5.0,Calm,Calm,-,N/A,,Overcast,0,2013-12-02 04:53:00
11:13 PM,21.2,21.2,100,29.89,5.0,Calm,Calm,-,N/A,,Overcast,0,2013-12-02 05:13:00
11:33 PM,21.2,21.2,100,29.88,5.0,ESE,4.6,-,N/A,,Overcast,110,2013-12-02 05:33:00
11:53 PM,21.2,21.2,100,29.87,5.0,East,3.5,-,N/A,,Overcast,100,2013-12-02 05:53:00